sensor_id;sensor_type;location;lat;lon;timestamp;pressure;altitude;pressure_sealevel;temperature;humidity
61014;BME280;46899;47.542;19.082;2022-12-07T00:00:53;100447.44;;;1.68;100.00
61014;BME280;46899;47.542;19.082;2022-12-07T00:03:57;100448.31;;;1.72;100.00
61014;BME280;46899;47.542;19.082;2022-12-07T00:07:02;100446.59;;;1.75;100.00
61014;BME280;46899;47.542;19.082;2022-12-07T00:10:06;100442.34;;;1.80;100.00
61014;BME280;46899;47.542;19.082;2022-12-07T00:13:09;100430.37;;;1.78;100.00
61014;BME280;46899;47.542;19.082;2022-12-07T00:16:13;100437.16;;;1.61;100.00
61014;BME280;46899;47.542;19.082;2022-12-07T00:19:15;100427.72;;;1.45;100.00
61014;BME280;46899;47.542;19.082;2022-12-07T00:22:18;100427.69;;;1.32;100.00
61014;BME280;46899;47.542;19.082;2022-12-07T00:25:20;100419.97;;;1.22;100.00
61014;BME280;46899;47.542;19.082;2022-12-07T00:28:23;100411.41;;;1.17;100.00
61014;BME280;46899;47.542;19.082;2022-12-07T00:31:27;100417.38;;;1.16;100.00
61014;BME280;46899;47.542;19.082;2022-12-07T00:34:30;100410.53;;;1.13;100.00
61014;BME280;46899;47.542;19.082;2022-12-07T00:37:32;100406.22;;;1.02;100.00
61014;BME280;46899;47.542;19.082;2022-12-07T00:40:35;100406.16;;;0.93;100.00
61014;BME280;46899;47.542;19.082;2022-12-07T00:43:37;100401.81;;;0.78;100.00
61014;BME280;46899;47.542;19.082;2022-12-07T00:46:40;100406.91;;;0.69;100.00
61014;BME280;46899;47.542;19.082;2022-12-07T00:49:42;100405.19;;;0.66;100.00
61014;BME280;46899;47.542;19.082;2022-12-07T00:52:45;100404.31;;;0.64;100.00
61014;BME280;46899;47.542;19.082;2022-12-07T00:55:47;100410.25;;;0.59;100.00
61014;BME280;46899;47.542;19.082;2022-12-07T00:58:51;100402.56;;;0.56;100.00
61014;BME280;46899;47.542;19.082;2022-12-07T01:01:53;100404.22;;;0.46;100.00
61014;BME280;46899;47.542;19.082;2022-12-07T01:04:56;100401.62;;;0.42;100.00
61014;BME280;46899;47.542;19.082;2022-12-07T01:07:58;100392.22;;;0.39;100.00
61014;BME280;46899;47.542;19.082;2022-12-07T01:11:03;100398.19;;;0.37;100.00
61014;BME280;46899;47.542;19.082;2022-12-07T01:14:05;100387.94;;;0.37;100.00
61014;BME280;46899;47.542;19.082;2022-12-07T01:17:08;100394.75;;;0.35;100.00
61014;BME280;46899;47.542;19.082;2022-12-07T01:20:11;100392.16;;;0.30;100.00
61014;BME280;46899;47.542;19.082;2022-12-07T01:23:13;100404.03;;;0.22;100.00
61014;BME280;46899;47.542;19.082;2022-12-07T01:26:17;100398.84;;;0.15;100.00
61014;BME280;46899;47.542;19.082;2022-12-07T01:29:19;100403.94;;;0.09;100.00
61014;BME280;46899;47.542;19.082;2022-12-07T01:32:22;100394.59;;;0.15;100.00
61014;BME280;46899;47.542;19.082;2022-12-07T01:35:24;100389.50;;;0.14;100.00
61014;BME280;46899;47.542;19.082;2022-12-07T01:38:27;100385.13;;;0.04;100.00
61014;BME280;46899;47.542;19.082;2022-12-07T01:41:31;100393.66;;;0.03;100.00
61014;BME280;46899;47.542;19.082;2022-12-07T01:45:15;100401.38;;;0.09;100.00
61014;BME280;46899;47.542;19.082;2022-12-07T01:47:56;100397.97;;;0.07;100.00
61014;BME280;46899;47.542;19.082;2022-12-07T01:51:00;100394.56;;;0.09;100.00
61014;BME280;46899;47.542;19.082;2022-12-07T01:54:04;100394.53;;;0.08;100.00
61014;BME280;46899;47.542;19.082;2022-12-07T01:57:06;100405.69;;;0.16;100.00
61014;BME280;46899;47.542;19.082;2022-12-07T02:00:10;100397.25;;;0.27;100.00
61014;BME280;46899;47.542;19.082;2022-12-07T02:03:18;100387.13;;;0.45;100.00
61014;BME280;46899;47.542;19.082;2022-12-07T02:06:22;100382.97;;;0.58;100.00
61014;BME280;46899;47.542;19.082;2022-12-07T02:09:26;100381.31;;;0.72;100.00
61014;BME280;46899;47.542;19.082;2022-12-07T02:12:29;100376.28;;;0.95;100.00
61014;BME280;46899;47.542;19.082;2022-12-07T02:15:38;100381.47;;;1.05;100.00
61014;BME280;46899;47.542;19.082;2022-12-07T02:41:31;100372.22;;;1.65;100.00
61014;BME280;46899;47.542;19.082;2022-12-07T02:44:36;100384.19;;;1.69;100.00
61014;BME280;46899;47.542;19.082;2022-12-07T02:47:38;100377.34;;;1.63;100.00
61014;BME280;46899;47.542;19.082;2022-12-07T02:51:00;100378.22;;;1.73;100.00
61014;BME280;46899;47.542;19.082;2022-12-07T02:54:02;100380.78;;;1.79;100.00
61014;BME280;46899;47.542;19.082;2022-12-07T02:57:09;100371.38;;;1.78;100.00
61014;BME280;46899;47.542;19.082;2022-12-07T03:00:17;100374.78;;;1.80;100.00
61014;BME280;46899;47.542;19.082;2022-12-07T03:03:21;100369.66;;;1.77;100.00
61014;BME280;46899;47.542;19.082;2022-12-07T03:06:28;100377.38;;;1.87;100.00
61014;BME280;46899;47.542;19.082;2022-12-07T03:13:18;100365.38;;;1.94;100.00
61014;BME280;46899;47.542;19.082;2022-12-07T03:16:27;100353.41;;;1.91;100.00
61014;BME280;46899;47.542;19.082;2022-12-07T03:19:32;100355.16;;;1.95;100.00
61014;BME280;46899;47.542;19.082;2022-12-07T03:22:36;100345.72;;;1.96;100.00
61014;BME280;46899;47.542;19.082;2022-12-07T03:25:44;100355.16;;;1.95;100.00
61014;BME280;46899;47.542;19.082;2022-12-07T03:28:50;100354.28;;;1.95;100.00
61014;BME280;46899;47.542;19.082;2022-12-07T03:32:14;100347.44;;;2.01;100.00
61014;BME280;46899;47.542;19.082;2022-12-07T03:35:34;100352.56;;;2.03;100.00
61014;BME280;46899;47.542;19.082;2022-12-07T03:38:57;100359.41;;;2.04;100.00
61014;BME280;46899;47.542;19.082;2022-12-07T03:42:03;100364.53;;;2.13;100.00
61014;BME280;46899;47.542;19.082;2022-12-07T03:45:07;100370.53;;;2.14;100.00
61014;BME280;46899;47.542;19.082;2022-12-07T03:48:16;100364.53;;;2.13;100.00
61014;BME280;46899;47.542;19.082;2022-12-07T03:51:25;100384.22;;;2.14;100.00
61014;BME280;46899;47.542;19.082;2022-12-07T03:54:33;100389.34;;;2.11;100.00
61014;BME280;46899;47.542;19.082;2022-12-07T03:57:38;100385.03;;;2.15;100.00
61014;BME280;46899;47.542;19.082;2022-12-07T04:00:42;100385.91;;;2.20;100.00
61014;BME280;46899;47.542;19.082;2022-12-07T04:03:45;100384.19;;;2.05;100.00
61014;BME280;46899;47.542;19.082;2022-12-07T04:06:47;100385.06;;;1.99;100.00
61014;BME280;46899;47.542;19.082;2022-12-07T04:09:50;100385.91;;;1.94;100.00
61014;BME280;46899;47.542;19.082;2022-12-07T04:12:52;100379.09;;;1.93;100.00
61014;BME280;46899;47.542;19.082;2022-12-07T04:15:55;100380.81;;;2.00;100.00
61014;BME280;46899;47.542;19.082;2022-12-07T04:18:57;100387.62;;;2.05;100.00
61014;BME280;46899;47.542;19.082;2022-12-07T04:22:00;100379.94;;;2.16;100.00
61014;BME280;46899;47.542;19.082;2022-12-07T04:25:03;100386.75;;;2.17;100.00
61014;BME280;46899;47.542;19.082;2022-12-07T04:28:05;100381.59;;;2.34;100.00
61014;BME280;46899;47.542;19.082;2022-12-07T04:31:08;100379.91;;;2.37;100.00
61014;BME280;46899;47.542;19.082;2022-12-07T04:34:11;100385.03;;;2.34;100.00
61014;BME280;46899;47.542;19.082;2022-12-07T04:37:13;100375.63;;;2.36;100.00
61014;BME280;46899;47.542;19.082;2022-12-07T04:40:16;100374.75;;;2.43;100.00
61014;BME280;46899;47.542;19.082;2022-12-07T04:43:18;100374.72;;;2.52;100.00
61014;BME280;46899;47.542;19.082;2022-12-07T04:46:20;100381.56;;;2.55;100.00
61014;BME280;46899;47.542;19.082;2022-12-07T04:49:23;100378.16;;;2.60;100.00
61014;BME280;46899;47.542;19.082;2022-12-07T04:52:26;100380.72;;;2.63;100.00
61014;BME280;46899;47.542;19.082;2022-12-07T04:55:28;100383.28;;;2.68;100.00
61014;BME280;46899;47.542;19.082;2022-12-07T04:58:31;100381.53;;;2.70;100.00
61014;BME280;46899;47.542;19.082;2022-12-07T05:01:33;100387.53;;;2.75;100.00
61014;BME280;46899;47.542;19.082;2022-12-07T05:04:36;100372.94;;;2.85;100.00
61014;BME280;46899;47.542;19.082;2022-12-07T05:07:38;100370.38;;;2.85;100.00
61014;BME280;46899;47.542;19.082;2022-12-07T05:10:40;100371.22;;;2.87;100.00
61014;BME280;46899;47.542;19.082;2022-12-07T05:13:43;100362.63;;;2.94;100.00
61014;BME280;46899;47.542;19.082;2022-12-07T05:16:46;100351.44;;;2.99;100.00
61014;BME280;46899;47.542;19.082;2022-12-07T05:19:49;100351.44;;;3.02;100.00
61014;BME280;46899;47.542;19.082;2022-12-07T05:22:52;100344.63;;;2.98;100.00
61014;BME280;46899;47.542;19.082;2022-12-07T05:25:54;100347.16;;;3.03;100.00
61014;BME280;46899;47.542;19.082;2022-12-07T05:28:57;100344.63;;;2.98;100.00
61014;BME280;46899;47.542;19.082;2022-12-07T05:31:59;100342.03;;;3.00;100.00
61014;BME280;46899;47.542;19.082;2022-12-07T05:35:05;100348.87;;;3.01;100.00
61014;BME280;46899;47.542;19.082;2022-12-07T05:38:07;100352.28;;;3.07;100.00
61014;BME280;46899;47.542;19.082;2022-12-07T05:41:11;100340.31;;;3.02;100.00
61014;BME280;46899;47.542;19.082;2022-12-07T05:44:34;100352.31;;;3.03;100.00
61014;BME280;46899;47.542;19.082;2022-12-07T05:47:37;100352.31;;;3.00;100.00
61014;BME280;46899;47.542;19.082;2022-12-07T05:50:39;100353.16;;;3.02;100.00
61014;BME280;46899;47.542;19.082;2022-12-07T05:53:42;100354.88;;;3.01;100.00
61014;BME280;46899;47.542;19.082;2022-12-07T05:56:44;100351.44;;;3.05;100.00
61014;BME280;46899;47.542;19.082;2022-12-07T05:59:47;100355.72;;;3.05;100.00
61014;BME280;46899;47.542;19.082;2022-12-07T06:02:49;100361.69;;;3.07;100.00
61014;BME280;46899;47.542;19.082;2022-12-07T06:05:52;100364.25;;;3.10;100.00
61014;BME280;46899;47.542;19.082;2022-12-07T06:08:55;100364.22;;;3.19;100.00
61014;BME280;46899;47.542;19.082;2022-12-07T06:11:57;100359.13;;;3.13;100.00
61014;BME280;46899;47.542;19.082;2022-12-07T06:15:18;100363.34;;;3.18;100.00
61014;BME280;46899;47.542;19.082;2022-12-07T06:18:21;100358.22;;;3.18;100.00
61014;BME280;46899;47.542;19.082;2022-12-07T06:21:23;100356.47;;;3.20;100.00
61014;BME280;46899;47.542;19.082;2022-12-07T06:24:27;100365.09;;;3.18;100.00
61014;BME280;46899;47.542;19.082;2022-12-07T06:27:30;100348.75;;;3.28;100.00
61014;BME280;46899;47.542;19.082;2022-12-07T06:30:33;100359.81;;;3.43;100.00
61014;BME280;46899;47.542;19.082;2022-12-07T06:33:36;100364.91;;;3.46;100.00
61014;BME280;46899;47.542;19.082;2022-12-07T06:36:38;100364.06;;;3.46;100.00
61014;BME280;46899;47.542;19.082;2022-12-07T06:39:41;100362.31;;;3.53;100.00
61014;BME280;46899;47.542;19.082;2022-12-07T06:42:44;100364.00;;;3.55;100.00
61014;BME280;46899;47.542;19.082;2022-12-07T06:45:46;100367.44;;;3.54;100.00
61014;BME280;46899;47.542;19.082;2022-12-07T06:48:48;100382.03;;;3.52;100.00
61014;BME280;46899;47.542;19.082;2022-12-07T06:51:51;100377.78;;;3.48;100.00
61014;BME280;46899;47.542;19.082;2022-12-07T06:54:53;100389.91;;;3.19;100.00
61014;BME280;46899;47.542;19.082;2022-12-07T06:57:55;100382.22;;;3.16;100.00
61014;BME280;46899;47.542;19.082;2022-12-07T07:00:58;100384.00;;;3.03;100.00
61014;BME280;46899;47.542;19.082;2022-12-07T07:04:00;100384.88;;;2.98;100.00
61014;BME280;46899;47.542;19.082;2022-12-07T07:07:03;100390.00;;;2.98;100.00
61014;BME280;46899;47.542;19.082;2022-12-07T07:10:05;100385.75;;;2.97;100.00
61014;BME280;46899;47.542;19.082;2022-12-07T07:13:08;100384.00;;;3.03;100.00
61014;BME280;46899;47.542;19.082;2022-12-07T07:16:10;100382.28;;;3.08;100.00
61014;BME280;46899;47.542;19.082;2022-12-07T07:19:13;100384.84;;;3.08;100.00
61014;BME280;46899;47.542;19.082;2022-12-07T07:22:15;100388.25;;;3.12;100.00
61014;BME280;46899;47.542;19.082;2022-12-07T07:25:18;100391.66;;;3.14;100.00
61014;BME280;46899;47.542;19.082;2022-12-07T07:28:21;100392.56;;;3.04;100.00
61014;BME280;46899;47.542;19.082;2022-12-07T07:31:23;100390.84;;;3.03;100.00
61014;BME280;46899;47.542;19.082;2022-12-07T07:34:26;100385.72;;;3.06;100.00
61014;BME280;46899;47.542;19.082;2022-12-07T07:37:28;100388.25;;;3.12;100.00
61014;BME280;46899;47.542;19.082;2022-12-07T07:40:31;100389.09;;;3.14;100.00
61014;BME280;46899;47.542;19.082;2022-12-07T07:43:33;100386.50;;;3.20;100.00
61014;BME280;46899;47.542;19.082;2022-12-07T07:46:35;100377.03;;;3.28;100.00
61014;BME280;46899;47.542;19.082;2022-12-07T07:49:39;100384.72;;;3.31;100.00
61014;BME280;46899;47.542;19.082;2022-12-07T07:52:49;100385.50;;;3.45;100.00
61014;BME280;46899;47.542;19.082;2022-12-07T07:55:54;100382.87;;;3.53;100.00
61014;BME280;46899;47.542;19.082;2022-12-07T07:58:56;100386.22;;;3.68;100.00
61014;BME280;46899;47.542;19.082;2022-12-07T08:01:59;100387.88;;;3.75;100.00
61014;BME280;46899;47.542;19.082;2022-12-07T08:05:02;100390.34;;;3.89;100.00
61014;BME280;46899;47.542;19.082;2022-12-07T08:08:04;100388.66;;;3.88;100.00
61014;BME280;46899;47.542;19.082;2022-12-07T08:11:07;100394.47;;;4.11;100.00
61014;BME280;46899;47.542;19.082;2022-12-07T08:14:10;100390.88;;;4.29;100.00
61014;BME280;46899;47.542;19.082;2022-12-07T08:17:13;100394.28;;;4.32;100.00
61014;BME280;46899;47.542;19.082;2022-12-07T08:20:15;100391.69;;;4.35;100.00
61014;BME280;46899;47.542;19.082;2022-12-07T08:23:18;100398.47;;;4.44;100.00
61014;BME280;46899;47.542;19.082;2022-12-07T08:26:20;100403.66;;;4.42;100.00
61014;BME280;46899;47.542;19.082;2022-12-07T08:29:24;100407.88;;;4.48;100.00
61014;BME280;46899;47.542;19.082;2022-12-07T08:32:26;100411.97;;;4.68;100.00
61014;BME280;46899;47.542;19.082;2022-12-07T08:35:29;100407.63;;;4.72;100.00
61014;BME280;46899;47.542;19.082;2022-12-07T08:38:31;100410.31;;;4.60;100.00
61014;BME280;46899;47.542;19.082;2022-12-07T08:41:34;100409.38;;;4.70;100.00
61014;BME280;46899;47.542;19.082;2022-12-07T08:44:36;100410.91;;;4.86;100.00
61014;BME280;46899;47.542;19.082;2022-12-07T08:47:43;100417.53;;;5.08;100.00
61014;BME280;46899;47.542;19.082;2022-12-07T08:50:47;100413.84;;;5.29;100.00
61014;BME280;46899;47.542;19.082;2022-12-07T08:53:51;100417.19;;;5.35;100.00
61014;BME280;46899;47.542;19.082;2022-12-07T08:56:54;100416.00;;;5.59;100.00
61014;BME280;46899;47.542;19.082;2022-12-07T09:00:01;100416.81;;;5.64;100.00
61014;BME280;46899;47.542;19.082;2022-12-07T09:03:05;100422.50;;;5.89;100.00
61014;BME280;46899;47.542;19.082;2022-12-07T09:06:07;100415.63;;;5.88;100.00
61014;BME280;46899;47.542;19.082;2022-12-07T09:09:10;100420.66;;;5.97;100.00
61014;BME280;46899;47.542;19.082;2022-12-07T09:12:14;100421.34;;;6.08;100.00
61014;BME280;46899;47.542;19.082;2022-12-07T09:15:16;100414.25;;;6.20;100.00
61014;BME280;46899;47.542;19.082;2022-12-07T09:18:20;100409.75;;;6.32;100.00
61014;BME280;46899;47.542;19.082;2022-12-07T09:21:23;100412.25;;;6.36;100.00
61014;BME280;46899;47.542;19.082;2022-12-07T09:24:26;100402.81;;;6.35;100.00
61014;BME280;46899;47.542;19.082;2022-12-07T09:27:28;100396.63;;;6.45;100.00
61014;BME280;46899;47.542;19.082;2022-12-07T09:30:31;100395.03;;;6.38;100.00
61014;BME280;46899;47.542;19.082;2022-12-07T09:33:57;100394.84;;;6.47;100.00
61014;BME280;46899;47.542;19.082;2022-12-07T09:37:00;100394.78;;;6.50;100.00
61014;BME280;46899;47.542;19.082;2022-12-07T09:40:03;100389.91;;;6.35;100.00
61014;BME280;46899;47.542;19.082;2022-12-07T09:43:11;100397.81;;;6.25;100.00
61014;BME280;46899;47.542;19.082;2022-12-07T09:46:14;100388.25;;;6.30;100.00
61014;BME280;46899;47.542;19.082;2022-12-07T09:49:22;100389.44;;;6.61;100.00
61014;BME280;46899;47.542;19.082;2022-12-07T09:52:27;100384.00;;;6.74;100.00
61014;BME280;46899;47.542;19.082;2022-12-07T09:55:38;100385.50;;;6.86;100.00
61014;BME280;46899;47.542;19.082;2022-12-07T09:58:43;100379.31;;;6.95;100.00
61014;BME280;46899;47.542;19.082;2022-12-07T10:01:46;100377.25;;;7.10;100.00
61014;BME280;46899;47.542;19.082;2022-12-07T10:04:49;100371.22;;;7.11;100.00
61014;BME280;46899;47.542;19.082;2022-12-07T10:07:52;100364.84;;;7.27;100.00
61014;BME280;46899;47.542;19.082;2022-12-07T10:10:55;100367.38;;;7.29;98.91
61014;BME280;46899;47.542;19.082;2022-12-07T10:14:09;100361.59;;;7.18;98.70
61014;BME280;46899;47.542;19.082;2022-12-07T10:20:33;100365.75;;;6.82;95.65
61014;BME280;46899;47.542;19.082;2022-12-07T10:23:37;100366.53;;;6.85;97.97
61014;BME280;46899;47.542;19.082;2022-12-07T10:29:52;100361.88;;;7.44;94.27
61014;BME280;46899;47.542;19.082;2022-12-07T10:32:55;100362.00;;;7.38;92.22
61014;BME280;46899;47.542;19.082;2022-12-07T10:35:57;100366.03;;;7.49;90.26
61014;BME280;46899;47.542;19.082;2022-12-07T10:39:03;100354.78;;;7.52;89.07
61014;BME280;46899;47.542;19.082;2022-12-07T10:42:08;100351.97;;;7.63;89.95
61014;BME280;46899;47.542;19.082;2022-12-07T10:45:18;100344.19;;;7.61;89.80
61014;BME280;46899;47.542;19.082;2022-12-07T11:07:20;100335.63;;;7.59;88.78
61014;BME280;46899;47.542;19.082;2022-12-07T11:10:26;100333.56;;;7.75;87.66
61014;BME280;46899;47.542;19.082;2022-12-07T11:13:47;100333.62;;;7.70;86.28
61014;BME280;46899;47.542;19.082;2022-12-07T11:16:59;100332.00;;;7.66;88.29
61014;BME280;46899;47.542;19.082;2022-12-07T11:33:11;100330.22;;;7.31;92.28
61014;BME280;46899;47.542;19.082;2022-12-07T11:42:27;100327.25;;;7.10;89.73
61014;BME280;46899;47.542;19.082;2022-12-07T11:45:35;100327.19;;;7.13;88.61
61014;BME280;46899;47.542;19.082;2022-12-07T11:51:57;100326.69;;;6.97;90.28
61014;BME280;46899;47.542;19.082;2022-12-07T11:55:02;100330.53;;;6.76;91.61
61014;BME280;46899;47.542;19.082;2022-12-07T11:58:18;100334.09;;;6.69;92.26
61014;BME280;46899;47.542;19.082;2022-12-07T12:11:25;100313.75;;;6.53;91.16
61014;BME280;46899;47.542;19.082;2022-12-07T12:14:47;100309.62;;;6.44;88.59
61014;BME280;46899;47.542;19.082;2022-12-07T12:20:57;100305.84;;;6.16;89.25
61014;BME280;46899;47.542;19.082;2022-12-07T12:24:13;100300.88;;;6.04;90.12
61014;BME280;46899;47.542;19.082;2022-12-07T12:27:25;100291.47;;;6.01;91.44
61014;BME280;46899;47.542;19.082;2022-12-07T12:30:34;100284.44;;;6.08;91.46
61014;BME280;46899;47.542;19.082;2022-12-07T12:33:37;100285.06;;;6.22;90.74
61014;BME280;46899;47.542;19.082;2022-12-07T12:39:54;100278.56;;;6.46;92.36
61014;BME280;46899;47.542;19.082;2022-12-07T12:43:14;100273.78;;;6.69;94.12
61014;BME280;46899;47.542;19.082;2022-12-07T12:58:44;100269.97;;;7.26;88.23
61014;BME280;46899;47.542;19.082;2022-12-07T13:01:48;100279.22;;;7.35;87.49
61014;BME280;46899;47.542;19.082;2022-12-07T13:05:01;100285.47;;;7.26;85.10
61014;BME280;46899;47.542;19.082;2022-12-07T13:08:17;100281.34;;;7.19;86.80
61014;BME280;46899;47.542;19.082;2022-12-07T13:11:31;100288.22;;;7.19;86.76
61014;BME280;46899;47.542;19.082;2022-12-07T13:20:47;100283.47;;;7.01;83.93
61014;BME280;46899;47.542;19.082;2022-12-07T13:26:54;100301.06;;;6.83;82.14
61014;BME280;46899;47.542;19.082;2022-12-07T13:29:58;100301.03;;;6.86;82.76
61014;BME280;46899;47.542;19.082;2022-12-07T13:33:03;100307.25;;;6.78;82.84
61014;BME280;46899;47.542;19.082;2022-12-07T13:36:09;100311.97;;;6.56;83.28
61014;BME280;46899;47.542;19.082;2022-12-07T13:39:17;100295.91;;;6.41;85.89
61014;BME280;46899;47.542;19.082;2022-12-07T13:42:33;100297.16;;;6.20;87.00
61014;BME280;46899;47.542;19.082;2022-12-07T13:45:36;100295.72;;;6.04;89.00
61014;BME280;46899;47.542;19.082;2022-12-07T13:48:51;100307.97;;;5.93;90.80
61014;BME280;46899;47.542;19.082;2022-12-07T13:51:55;100311.53;;;5.86;92.10
61014;BME280;46899;47.542;19.082;2022-12-07T13:55:13;100309.09;;;5.77;93.29
61014;BME280;46899;47.542;19.082;2022-12-07T13:58:16;100308.44;;;5.63;94.99
61014;BME280;46899;47.542;19.082;2022-12-07T14:01:19;100309.22;;;5.66;97.15
61014;BME280;46899;47.542;19.082;2022-12-07T14:04:35;100320.47;;;5.65;97.11
61014;BME280;46899;47.542;19.082;2022-12-07T14:07:48;100318.78;;;5.63;98.38
61014;BME280;46899;47.542;19.082;2022-12-07T14:14:02;100312.91;;;5.51;99.32
61014;BME280;46899;47.542;19.082;2022-12-07T14:17:13;100309.78;;;5.31;100.00
61014;BME280;46899;47.542;19.082;2022-12-07T14:20:30;100307.34;;;5.22;100.00
61014;BME280;46899;47.542;19.082;2022-12-07T14:23:33;100312.63;;;5.13;100.00
61014;BME280;46899;47.542;19.082;2022-12-07T14:26:37;100313.59;;;5.02;100.00
61014;BME280;46899;47.542;19.082;2022-12-07T14:29:40;100323.16;;;4.95;100.00
61014;BME280;46899;47.542;19.082;2022-12-07T14:32:42;100324.13;;;4.87;100.00
61014;BME280;46899;47.542;19.082;2022-12-07T14:35:50;100318.09;;;4.89;100.00
61014;BME280;46899;47.542;19.082;2022-12-07T14:38:57;100319.00;;;4.85;100.00
61014;BME280;46899;47.542;19.082;2022-12-07T14:42:02;100321.69;;;4.74;100.00
61014;BME280;46899;47.542;19.082;2022-12-07T14:45:05;100322.63;;;4.70;100.00
61014;BME280;46899;47.542;19.082;2022-12-07T14:48:12;100332.94;;;4.67;100.00
61014;BME280;46899;47.542;19.082;2022-12-07T14:51:36;100322.47;;;4.81;100.00
61014;BME280;46899;47.542;19.082;2022-12-07T14:55:00;100334.63;;;4.73;100.00
61014;BME280;46899;47.542;19.082;2022-12-07T14:58:03;100338.97;;;4.68;100.00
61014;BME280;46899;47.542;19.082;2022-12-07T15:01:06;100340.97;;;4.42;100.00
61014;BME280;46899;47.542;19.082;2022-12-07T15:04:08;100340.34;;;4.19;100.00
61014;BME280;46899;47.542;19.082;2022-12-07T15:07:18;100341.41;;;3.93;100.00
61014;BME280;46899;47.542;19.082;2022-12-07T15:10:26;100340.66;;;3.81;100.00
61014;BME280;46899;47.542;19.082;2022-12-07T15:13:33;100344.22;;;3.63;100.00
61014;BME280;46899;47.542;19.082;2022-12-07T15:16:55;100341.78;;;3.48;100.00
61014;BME280;46899;47.542;19.082;2022-12-07T15:20:17;100342.50;;;3.65;100.00
61014;BME280;46899;47.542;19.082;2022-12-07T15:23:20;100339.09;;;3.65;100.00
61014;BME280;46899;47.542;19.082;2022-12-07T15:26:23;100339.19;;;3.46;100.00
61014;BME280;46899;47.542;19.082;2022-12-07T15:29:25;100338.34;;;3.41;100.00
61014;BME280;46899;47.542;19.082;2022-12-07T15:32:28;100340.88;;;3.55;100.00
61014;BME280;46899;47.542;19.082;2022-12-07T15:35:31;100347.72;;;3.52;100.00
61014;BME280;46899;47.542;19.082;2022-12-07T15:38:34;100352.97;;;3.41;100.00
61014;BME280;46899;47.542;19.082;2022-12-07T15:41:57;100354.66;;;3.40;100.00
61014;BME280;46899;47.542;19.082;2022-12-07T15:44:59;100352.97;;;3.41;100.00
61014;BME280;46899;47.542;19.082;2022-12-07T15:48:09;100364.09;;;3.37;100.00
61014;BME280;46899;47.542;19.082;2022-12-07T15:51:31;100371.91;;;3.25;100.00
61014;BME280;46899;47.542;19.082;2022-12-07T15:54:34;100357.38;;;3.16;100.00
61014;BME280;46899;47.542;19.082;2022-12-07T15:57:36;100372.81;;;3.18;100.00
61014;BME280;46899;47.542;19.082;2022-12-07T16:00:39;100364.22;;;3.22;100.00
61014;BME280;46899;47.542;19.082;2022-12-07T16:03:42;100377.03;;;3.28;100.00
61014;BME280;46899;47.542;19.082;2022-12-07T16:06:44;100363.31;;;3.29;100.00
61014;BME280;46899;47.542;19.082;2022-12-07T16:09:47;100368.50;;;3.20;100.00
61014;BME280;46899;47.542;19.082;2022-12-07T16:12:51;100364.22;;;3.19;100.00
61014;BME280;46899;47.542;19.082;2022-12-07T16:15:55;100367.62;;;3.24;100.00
61014;BME280;46899;47.542;19.082;2022-12-07T16:18:57;100371.09;;;3.17;100.00
61014;BME280;46899;47.542;19.082;2022-12-07T16:22:00;100365.16;;;3.03;100.00
61014;BME280;46899;47.542;19.082;2022-12-07T16:25:02;100367.78;;;2.89;100.00
61014;BME280;46899;47.542;19.082;2022-12-07T16:28:05;100367.81;;;2.80;100.00
61014;BME280;46899;47.542;19.082;2022-12-07T16:31:12;100367.03;;;2.58;100.00
61014;BME280;46899;47.542;19.082;2022-12-07T16:34:15;100369.59;;;2.52;100.00
61014;BME280;46899;47.542;19.082;2022-12-07T16:37:17;100364.47;;;2.52;100.00
61014;BME280;46899;47.542;19.082;2022-12-07T16:40:20;100365.25;;;2.80;100.00
61014;BME280;46899;47.542;19.082;2022-12-07T16:43:22;100362.69;;;2.80;100.00
61014;BME280;46899;47.542;19.082;2022-12-07T16:46:25;100363.56;;;2.73;100.00
61014;BME280;46899;47.542;19.082;2022-12-07T16:49:28;100372.16;;;2.66;100.00
61014;BME280;46899;47.542;19.082;2022-12-07T16:52:30;100365.28;;;2.66;100.00
61014;BME280;46899;47.542;19.082;2022-12-07T16:55:37;100379.84;;;2.70;100.00
61014;BME280;46899;47.542;19.082;2022-12-07T16:58:40;100381.59;;;2.53;100.00
61014;BME280;46899;47.542;19.082;2022-12-07T17:01:43;100378.22;;;2.38;100.00
61014;BME280;46899;47.542;19.082;2022-12-07T17:04:46;100379.94;;;2.21;100.00
61014;BME280;46899;47.542;19.082;2022-12-07T17:07:48;100380.78;;;2.06;100.00
61014;BME280;46899;47.542;19.082;2022-12-07T17:10:51;100385.91;;;1.86;100.00
61014;BME280;46899;47.542;19.082;2022-12-07T17:13:53;100390.16;;;1.77;100.00
61014;BME280;46899;47.542;19.082;2022-12-07T17:17:15;100400.44;;;1.65;100.00
61014;BME280;46899;47.542;19.082;2022-12-07T17:20:17;100400.41;;;1.50;100.00
61014;BME280;46899;47.542;19.082;2022-12-07T17:23:20;100402.06;;;1.42;100.00
61014;BME280;46899;47.542;19.082;2022-12-07T17:26:24;100403.78;;;1.36;100.00
61014;BME280;46899;47.542;19.082;2022-12-07T17:29:33;100402.06;;;1.35;100.00
61014;BME280;46899;47.542;19.082;2022-12-07T17:32:36;100382.38;;;1.30;100.00
61014;BME280;46899;47.542;19.082;2022-12-07T17:35:38;100390.06;;;1.25;100.00
61014;BME280;46899;47.542;19.082;2022-12-07T17:38:41;100390.94;;;1.24;100.00
61014;BME280;46899;47.542;19.082;2022-12-07T17:41:44;100390.91;;;1.17;100.00
61014;BME280;46899;47.542;19.082;2022-12-07T17:45:06;100397.72;;;1.13;100.00
61014;BME280;46899;47.542;19.082;2022-12-07T17:48:09;100397.69;;;1.04;100.00
61014;BME280;46899;47.542;19.082;2022-12-07T17:51:11;100401.09;;;1.00;100.00